createdAt,value
2023-05-09T00:01:18.457Z,52.01
2023-05-09T00:03:44.992Z,51.51
2023-05-09T00:06:11.715Z,52.30
2023-05-09T00:08:38.296Z,52.13
2023-05-09T00:11:05.007Z,52.41
2023-05-09T00:13:31.519Z,52.64
2023-05-09T00:15:58.036Z,52.20
2023-05-09T00:18:24.524Z,52.24
2023-05-09T00:20:51.090Z,52.80
2023-05-09T00:23:17.608Z,53.13
2023-05-09T00:25:44.178Z,52.89
2023-05-09T00:28:10.700Z,52.82
2023-05-09T00:30:37.270Z,53.01
2023-05-09T00:33:03.870Z,52.89
2023-05-09T00:35:30.517Z,53.25
2023-05-09T00:37:57.047Z,52.97
2023-05-09T00:40:23.525Z,52.81
2023-05-09T00:42:50.050Z,53.06
2023-05-09T00:45:16.579Z,53.32
2023-05-09T00:47:43.151Z,53.07
2023-05-09T00:50:09.913Z,52.96
2023-05-09T00:52:36.447Z,52.84
2023-05-09T00:55:03.021Z,53.60
2023-05-09T00:57:29.489Z,53.24
2023-05-09T00:59:56.028Z,53.53
2023-05-09T01:02:22.720Z,52.85
2023-05-09T01:04:49.317Z,53.31
2023-05-09T01:07:33.682Z,53.40
2023-05-09T01:10:08.387Z,53.45
2023-05-09T01:12:41.313Z,53.44
2023-05-09T01:15:21.148Z,53.33
2023-05-09T01:18:03.908Z,53.52
2023-05-09T01:20:33.570Z,53.30
2023-05-09T01:23:27.169Z,53.48
2023-05-09T01:26:05.192Z,53.59
2023-05-09T01:29:13.443Z,54.04
2023-05-09T01:31:41.226Z,54.09
2023-05-09T01:34:08.464Z,54.06
2023-05-09T01:36:34.995Z,54.51
2023-05-09T01:39:01.529Z,54.34
2023-05-09T01:41:29.288Z,54.89
2023-05-09T01:43:55.887Z,54.63
2023-05-09T01:46:22.460Z,55.14
2023-05-09T01:48:49.809Z,54.97
2023-05-09T01:51:16.343Z,54.90
2023-05-09T01:53:42.848Z,54.99
2023-05-09T01:56:10.047Z,55.17
2023-05-09T01:58:36.594Z,55.75
2023-05-09T02:01:03.351Z,55.80
2023-05-09T02:03:30.042Z,55.63
2023-05-09T02:05:56.674Z,55.85
2023-05-09T02:08:23.285Z,55.76
2023-05-09T02:10:49.840Z,55.78
2023-05-09T02:13:16.425Z,56.24
2023-05-09T02:15:43.240Z,55.97
2023-05-09T02:18:09.790Z,56.17
2023-05-09T02:20:36.285Z,56.58
2023-05-09T02:23:02.834Z,56.25
2023-05-09T02:25:29.373Z,56.74
2023-05-09T02:27:56.924Z,56.58
2023-05-09T02:30:24.369Z,57.00
2023-05-09T02:32:53.824Z,57.46
2023-05-09T02:35:20.504Z,57.28
2023-05-09T02:37:47.043Z,57.24
2023-05-09T02:40:13.645Z,57.35
2023-05-09T02:42:40.202Z,57.85
2023-05-09T02:45:07.366Z,57.93
2023-05-09T02:47:33.900Z,57.35
2023-05-09T02:50:00.522Z,57.42
2023-05-09T02:52:27.124Z,58.01
2023-05-09T02:54:53.676Z,57.93
2023-05-09T02:57:20.153Z,58.11
2023-05-09T02:59:46.669Z,57.90
2023-05-09T03:02:13.197Z,58.49
2023-05-09T03:04:39.796Z,58.64
2023-05-09T03:07:06.303Z,58.88
2023-05-09T03:09:32.853Z,58.60
2023-05-09T03:11:59.359Z,58.99
2023-05-09T03:14:25.878Z,58.83
2023-05-09T03:16:52.424Z,59.31
2023-05-09T03:19:18.970Z,59.17
2023-05-09T03:21:45.507Z,59.74
2023-05-09T03:24:12.065Z,59.50
2023-05-09T03:26:38.634Z,59.61
2023-05-09T03:29:05.155Z,59.60
2023-05-09T03:31:31.863Z,60.18
2023-05-09T03:33:58.414Z,59.92
2023-05-09T03:36:24.936Z,59.64
2023-05-09T03:38:51.481Z,59.95
2023-05-09T03:41:18.084Z,59.67
2023-05-09T03:43:44.944Z,60.35
2023-05-09T03:46:11.534Z,60.94
2023-05-09T03:48:38.088Z,60.78
2023-05-09T03:51:04.635Z,60.99
2023-05-09T03:53:31.248Z,60.72
2023-05-09T03:55:57.821Z,61.13
2023-05-09T03:58:24.359Z,61.22
2023-05-09T04:00:50.915Z,60.80
2023-05-09T04:03:17.556Z,61.43
2023-05-09T04:05:44.130Z,61.39
2023-05-09T04:08:10.692Z,61.83
2023-05-09T04:10:37.246Z,61.77
2023-05-09T04:13:03.837Z,61.45
2023-05-09T04:15:30.432Z,61.98
2023-05-09T04:17:57.044Z,61.69
2023-05-09T04:20:23.613Z,62.18
2023-05-09T04:22:50.176Z,62.28
2023-05-09T04:25:16.875Z,62.27
2023-05-09T04:27:43.592Z,62.23
2023-05-09T04:30:10.841Z,62.42
2023-05-09T04:32:37.519Z,62.06
2023-05-09T04:35:04.539Z,62.83
2023-05-09T04:37:31.072Z,62.38
2023-05-09T04:39:57.667Z,62.51
2023-05-09T04:42:24.247Z,62.57
2023-05-09T04:44:50.827Z,62.41
2023-05-09T04:47:17.400Z,62.64
2023-05-09T04:49:44.007Z,62.44
2023-05-09T04:52:10.634Z,62.43
2023-05-09T04:54:37.126Z,63.04
2023-05-09T04:57:16.538Z,62.98
2023-05-09T04:59:44.848Z,62.90
2023-05-09T05:02:11.486Z,62.64
2023-05-09T05:04:38.116Z,63.29
2023-05-09T05:07:04.745Z,63.17
2023-05-09T05:09:31.375Z,63.63
2023-05-09T05:12:01.720Z,63.17
2023-05-09T05:14:29.948Z,63.79
2023-05-09T05:16:56.501Z,63.55
2023-05-09T05:19:23.073Z,63.77
2023-05-09T05:21:49.616Z,63.38
2023-05-09T05:24:16.151Z,62.53
2023-05-09T05:26:42.723Z,63.30
2023-05-09T05:29:09.258Z,63.36
2023-05-09T05:31:35.786Z,62.89
2023-05-09T05:34:03.459Z,62.75
2023-05-09T05:36:30.063Z,63.03
2023-05-09T05:38:56.598Z,63.49
2023-05-09T05:41:23.132Z,63.42
2023-05-09T05:43:50.130Z,62.79
2023-05-09T05:46:17.691Z,63.43
2023-05-09T05:48:44.296Z,63.55
2023-05-09T05:51:10.822Z,63.44
2023-05-09T05:53:37.447Z,63.09
2023-05-09T05:56:04.259Z,63.10
2023-05-09T05:58:30.871Z,62.98
2023-05-09T06:00:57.460Z,63.54
2023-05-09T06:03:24.105Z,63.60
2023-05-09T06:05:50.681Z,63.75
2023-05-09T06:08:17.277Z,63.59
2023-05-09T06:10:43.855Z,63.80
2023-05-09T06:13:10.457Z,63.59
2023-05-09T06:15:37.085Z,63.39
2023-05-09T06:18:03.803Z,63.55
2023-05-09T06:20:30.391Z,63.50
2023-05-09T06:22:56.955Z,63.70
2023-05-09T06:25:23.565Z,63.94
2023-05-09T06:27:50.223Z,63.87
2023-05-09T06:30:26.268Z,63.90
2023-05-09T06:32:54.518Z,63.61
2023-05-09T06:35:21.247Z,64.08
2023-05-09T06:37:48.837Z,63.80
2023-05-09T06:40:16.493Z,63.77
2023-05-09T06:42:43.085Z,63.54
2023-05-09T06:45:10.209Z,63.50
2023-05-09T06:47:36.834Z,63.18
2023-05-09T06:50:03.576Z,63.39
2023-05-09T06:52:30.157Z,62.96
2023-05-09T06:54:56.721Z,63.09
2023-05-09T06:57:23.298Z,62.69
2023-05-09T06:59:49.847Z,62.22
2023-05-09T07:02:16.367Z,61.88
2023-05-09T07:04:43.001Z,61.61
2023-05-09T07:07:09.586Z,61.56
2023-05-09T07:09:36.089Z,61.40
2023-05-09T07:12:02.727Z,61.58
2023-05-09T07:14:29.386Z,61.26
2023-05-09T07:17:02.362Z,61.22
2023-05-09T07:19:36.799Z,61.36
2023-05-09T07:22:03.324Z,60.66
2023-05-09T07:24:29.868Z,60.18
2023-05-09T07:26:56.400Z,60.06
2023-05-09T07:29:23.038Z,60.45
2023-05-09T07:31:49.680Z,59.57
2023-05-09T07:34:16.675Z,59.40
2023-05-09T07:36:43.349Z,59.08
2023-05-09T07:39:09.908Z,60.32
2023-05-09T07:41:36.582Z,59.93
2023-05-09T07:44:03.179Z,58.59
2023-05-09T07:46:29.893Z,58.86
2023-05-09T07:48:56.490Z,58.57
2023-05-09T07:51:23.040Z,58.81
2023-05-09T07:53:49.716Z,59.06
2023-05-09T07:56:16.573Z,57.91
2023-05-09T07:58:43.142Z,57.74
2023-05-09T08:01:09.733Z,57.91
2023-05-09T08:03:36.335Z,57.72
2023-05-09T08:06:02.976Z,57.29
2023-05-09T08:08:29.541Z,57.43
2023-05-09T08:10:56.319Z,57.62
2023-05-09T08:13:22.824Z,56.72
2023-05-09T08:15:49.456Z,57.26
2023-05-09T08:18:16.045Z,56.55
2023-05-09T08:20:42.681Z,56.81
2023-05-09T08:23:09.246Z,56.04
2023-05-09T08:25:35.757Z,56.46
2023-05-09T08:28:02.302Z,56.66
2023-05-09T08:30:28.867Z,56.14
2023-05-09T08:32:55.709Z,55.84
2023-05-09T08:35:22.348Z,55.15
2023-05-09T08:37:49.077Z,55.41
2023-05-09T08:40:15.930Z,54.75
2023-05-09T08:42:42.660Z,54.66
2023-05-09T08:45:13.543Z,54.79
2023-05-09T08:47:40.275Z,54.15
2023-05-09T08:50:07.623Z,53.82
2023-05-09T08:52:34.214Z,52.49
2023-05-09T08:55:01.409Z,51.62
2023-05-09T08:57:28.061Z,50.99
2023-05-09T08:59:55.328Z,50.00
2023-05-09T09:02:21.900Z,49.72
2023-05-09T09:04:48.530Z,49.53
2023-05-09T09:07:15.284Z,48.88
2023-05-09T09:09:46.477Z,47.66
2023-05-09T09:12:13.137Z,47.15
2023-05-09T09:14:39.734Z,46.97
2023-05-09T09:17:06.291Z,47.59
2023-05-09T09:19:32.878Z,47.13
2023-05-09T09:21:59.946Z,45.53
2023-05-09T09:24:26.499Z,46.12
2023-05-09T09:26:53.075Z,45.06
2023-05-09T09:29:20.004Z,44.07
2023-05-09T09:31:47.007Z,44.27
2023-05-09T09:34:20.082Z,43.31
2023-05-09T09:36:46.728Z,43.55
2023-05-09T09:39:13.485Z,43.38
2023-05-09T09:41:40.040Z,41.77
2023-05-09T09:44:19.549Z,41.86
2023-05-09T09:46:50.398Z,42.30
2023-05-09T09:49:18.813Z,42.09
2023-05-09T09:51:45.444Z,41.31
2023-05-09T09:54:12.605Z,40.74
2023-05-09T09:56:46.572Z,40.42
2023-05-09T09:59:14.305Z,40.09
2023-05-09T10:02:10.274Z,40.49
2023-05-09T10:04:38.031Z,39.55
2023-05-09T10:07:06.451Z,39.56
2023-05-09T10:09:33.894Z,39.40
2023-05-09T10:12:03.161Z,39.39
2023-05-09T10:14:32.433Z,38.83
2023-05-09T10:17:00.458Z,38.92
2023-05-09T10:19:27.424Z,38.77
2023-05-09T10:22:05.097Z,38.32
2023-05-09T10:24:37.999Z,37.95
2023-05-09T10:27:06.590Z,37.28
2023-05-09T10:29:46.571Z,36.90
2023-05-09T10:32:17.650Z,36.63
2023-05-09T10:34:46.112Z,36.85
2023-05-09T10:37:12.599Z,36.52
2023-05-09T10:39:39.132Z,36.60
2023-05-09T10:42:05.675Z,36.41
2023-05-09T10:44:32.303Z,35.92
2023-05-09T10:46:58.974Z,36.25
2023-05-09T10:49:25.558Z,35.94
2023-05-09T10:51:52.100Z,35.82
2023-05-09T10:54:30.674Z,36.02
2023-05-09T10:56:57.650Z,35.68
2023-05-09T10:59:42.961Z,35.51
2023-05-09T11:02:18.719Z,34.86
2023-05-09T11:04:45.308Z,34.74
2023-05-09T11:07:25.571Z,35.04
2023-05-09T11:10:14.470Z,34.10
2023-05-09T11:12:56.181Z,34.33
2023-05-09T11:15:24.219Z,34.29
2023-05-09T11:18:26.024Z,33.60
2023-05-09T11:20:52.545Z,33.65
2023-05-09T11:23:19.282Z,33.91
2023-05-09T11:25:46.601Z,33.35
2023-05-09T11:28:26.222Z,33.15
2023-05-09T11:30:54.249Z,32.11
2023-05-09T11:33:27.946Z,32.35
2023-05-09T11:36:19.111Z,32.10
2023-05-09T11:38:48.475Z,31.92
2023-05-09T11:41:15.042Z,32.01
2023-05-09T11:43:42.582Z,32.00
2023-05-09T11:46:09.164Z,32.16
2023-05-09T11:48:39.658Z,31.06
2023-05-09T11:51:06.227Z,31.75
2023-05-09T11:53:32.784Z,32.44
2023-05-09T11:56:02.681Z,32.15
2023-05-09T11:58:29.233Z,31.82
2023-05-09T12:00:55.814Z,32.10
2023-05-09T12:03:22.612Z,31.26
2023-05-09T12:05:49.325Z,31.19
2023-05-09T12:08:15.910Z,31.27
2023-05-09T12:10:42.453Z,30.94
2023-05-09T12:13:09.100Z,31.37
2023-05-09T12:15:38.951Z,32.07
2023-05-09T12:18:06.785Z,31.89
2023-05-09T12:20:42.676Z,31.49
2023-05-09T12:23:10.620Z,30.95
2023-05-09T12:25:37.122Z,31.17
2023-05-09T12:28:03.659Z,30.32
2023-05-09T12:30:31.110Z,29.92
2023-05-09T12:32:57.859Z,29.86
2023-05-09T12:35:24.480Z,30.05
2023-05-09T12:37:58.471Z,30.79
2023-05-09T12:40:25.044Z,30.98
2023-05-09T12:42:51.591Z,31.05
2023-05-09T12:45:18.370Z,31.38
2023-05-09T12:47:45.146Z,30.92
2023-05-09T12:50:11.967Z,30.92
2023-05-09T12:52:50.696Z,30.56
2023-05-09T12:55:25.385Z,30.35
2023-05-09T12:57:59.563Z,29.67
2023-05-09T13:00:26.122Z,30.03
2023-05-09T13:02:52.756Z,30.09
2023-05-09T13:05:20.793Z,30.12
2023-05-09T13:07:48.601Z,30.02
2023-05-09T13:10:24.946Z,29.64
2023-05-09T13:12:51.755Z,29.46
2023-05-09T13:15:21.834Z,29.56
2023-05-09T13:17:48.914Z,29.29
2023-05-09T13:20:15.871Z,29.17
2023-05-09T13:22:43.791Z,29.38
2023-05-09T13:25:10.709Z,29.43
2023-05-09T13:27:37.346Z,29.56
2023-05-09T13:30:05.072Z,29.75
2023-05-09T13:32:31.654Z,30.19
2023-05-09T13:34:58.160Z,30.31
2023-05-09T13:37:24.745Z,30.01
2023-05-09T13:39:51.337Z,29.54
2023-05-09T13:42:19.268Z,29.44
2023-05-09T13:44:45.848Z,29.09
2023-05-09T13:47:12.460Z,28.34
2023-05-09T13:49:38.960Z,28.14
2023-05-09T13:52:05.768Z,27.71
2023-05-09T13:54:32.612Z,27.74
2023-05-09T13:56:59.195Z,27.71
2023-05-09T13:59:25.785Z,27.41
2023-05-09T14:01:52.431Z,27.23
2023-05-09T14:04:19.088Z,26.58
2023-05-09T14:06:45.653Z,26.61
2023-05-09T14:09:12.210Z,27.29
2023-05-09T14:11:38.812Z,26.45
2023-05-09T14:14:05.407Z,27.42
2023-05-09T14:16:32.265Z,27.48
2023-05-09T14:18:58.980Z,24.99
2023-05-09T14:21:25.562Z,26.52
2023-05-09T14:23:52.167Z,26.96
2023-05-09T14:26:18.690Z,25.12
2023-05-09T14:28:45.279Z,23.17
2023-05-09T14:31:11.888Z,21.67
2023-05-09T14:33:38.546Z,20.75
2023-05-09T14:36:05.566Z,21.98
2023-05-09T14:38:32.080Z,22.08
2023-05-09T14:40:58.735Z,23.44
2023-05-09T14:43:25.359Z,23.63
2023-05-09T14:45:51.903Z,24.48
2023-05-09T14:48:18.498Z,25.05
2023-05-09T14:50:45.067Z,26.20
2023-05-09T14:53:11.654Z,26.59
2023-05-09T14:55:38.213Z,27.97
2023-05-09T14:58:04.764Z,28.54
2023-05-09T15:00:31.344Z,29.01
2023-05-09T15:02:58.033Z,29.63
2023-05-09T15:05:24.641Z,30.57
2023-05-09T15:07:51.185Z,31.28
2023-05-09T15:10:18.166Z,31.88
2023-05-09T15:12:44.981Z,32.33
2023-05-09T15:15:15.649Z,32.24
2023-05-09T15:17:43.240Z,32.85
2023-05-09T15:20:10.834Z,32.51
2023-05-09T15:22:37.477Z,32.21
2023-05-09T15:25:06.174Z,31.96
2023-05-09T15:27:32.958Z,32.05
2023-05-09T15:29:59.566Z,32.18
2023-05-09T15:32:26.336Z,32.42
2023-05-09T15:34:52.898Z,31.97
2023-05-09T15:37:19.410Z,32.59
2023-05-09T15:39:46.010Z,32.40
2023-05-09T15:42:12.812Z,32.41
2023-05-09T15:44:40.039Z,32.61
2023-05-09T15:47:06.615Z,32.08
2023-05-09T15:49:33.408Z,31.84
2023-05-09T15:52:00.209Z,31.37
2023-05-09T15:54:26.763Z,31.00
2023-05-09T15:56:53.325Z,31.07
2023-05-09T15:59:19.893Z,31.72
2023-05-09T16:01:46.476Z,32.14
2023-05-09T16:04:13.051Z,31.97
2023-05-09T16:06:39.557Z,32.64
2023-05-09T16:09:06.438Z,32.52
2023-05-09T16:11:33.178Z,32.59
2023-05-09T16:13:59.777Z,32.62
2023-05-09T16:16:26.398Z,31.68
2023-05-09T16:18:52.988Z,31.81
2023-05-09T16:21:19.588Z,31.92
2023-05-09T16:23:46.164Z,31.84
2023-05-09T16:26:12.712Z,32.39
2023-05-09T16:28:39.229Z,32.38
2023-05-09T16:31:06.674Z,33.19
2023-05-09T16:33:33.250Z,33.60
2023-05-09T16:35:59.768Z,33.68
2023-05-09T16:38:26.436Z,33.67
2023-05-09T16:40:53.067Z,33.52
2023-05-09T16:43:19.611Z,33.58
2023-05-09T16:45:46.607Z,33.86
2023-05-09T16:48:13.443Z,33.36
2023-05-09T16:50:40.036Z,33.33
2023-05-09T16:53:06.580Z,33.15
2023-05-09T16:55:33.126Z,33.40
2023-05-09T16:57:59.688Z,33.88
2023-05-09T17:00:26.369Z,33.67
2023-05-09T17:02:52.957Z,33.59
2023-05-09T17:05:19.523Z,33.93
2023-05-09T17:07:46.034Z,34.40
2023-05-09T17:10:12.696Z,34.05
2023-05-09T17:12:39.249Z,34.31
2023-05-09T17:15:07.108Z,34.03
2023-05-09T17:17:33.668Z,34.81
2023-05-09T17:20:00.309Z,34.65
2023-05-09T17:22:27.345Z,34.99
2023-05-09T17:24:54.460Z,34.51
2023-05-09T17:27:21.055Z,34.01
2023-05-09T17:29:47.589Z,34.44
2023-05-09T17:32:14.134Z,34.42
2023-05-09T17:34:40.662Z,34.91
2023-05-09T17:37:07.195Z,34.42
2023-05-09T17:39:33.739Z,34.50
2023-05-09T17:42:00.270Z,34.24
2023-05-09T17:44:26.957Z,34.70
2023-05-09T17:46:53.555Z,34.66
2023-05-09T17:49:20.101Z,34.61
2023-05-09T17:51:46.626Z,34.88
2023-05-09T17:54:13.452Z,34.63
2023-05-09T17:56:39.987Z,35.07
2023-05-09T17:59:06.577Z,35.33
2023-05-09T18:01:33.197Z,35.40
2023-05-09T18:04:00.221Z,35.10
2023-05-09T18:06:26.830Z,35.06
2023-05-09T18:08:53.362Z,34.69
2023-05-09T18:11:19.909Z,34.15
2023-05-09T18:13:46.445Z,34.78
2023-05-09T18:16:13.020Z,34.71
2023-05-09T18:18:39.535Z,35.05
2023-05-09T18:21:06.018Z,34.73
2023-05-09T18:23:32.534Z,34.73
2023-05-09T18:25:59.040Z,34.57
2023-05-09T18:28:25.881Z,34.36
2023-05-09T18:30:56.747Z,34.97
2023-05-09T18:33:23.978Z,34.58
2023-05-09T18:35:50.557Z,34.94
2023-05-09T18:38:17.216Z,35.12
2023-05-09T18:40:43.810Z,35.15
2023-05-09T18:43:10.361Z,34.88
2023-05-09T18:45:36.870Z,34.94
2023-05-09T18:48:03.598Z,35.17
2023-05-09T18:50:30.568Z,34.66
2023-05-09T18:52:57.079Z,35.08
2023-05-09T18:55:23.785Z,35.13
2023-05-09T18:57:50.281Z,35.34
2023-05-09T19:00:17.176Z,35.03
2023-05-09T19:02:44.011Z,35.52
2023-05-09T19:05:10.545Z,35.85
2023-05-09T19:07:37.328Z,36.23
2023-05-09T19:10:04.606Z,36.29
2023-05-09T19:12:31.459Z,36.45
2023-05-09T19:14:58.029Z,36.56
2023-05-09T19:17:24.763Z,36.48
2023-05-09T19:19:51.450Z,36.41
2023-05-09T19:22:17.992Z,37.06
2023-05-09T19:24:44.541Z,37.26
2023-05-09T19:27:11.178Z,37.49
2023-05-09T19:29:37.678Z,37.82
2023-05-09T19:32:04.285Z,37.68
2023-05-09T19:34:30.821Z,37.45
2023-05-09T19:36:57.370Z,37.70
2023-05-09T19:39:23.957Z,37.77
2023-05-09T19:41:50.484Z,38.11
2023-05-09T19:44:17.089Z,38.19
2023-05-09T19:46:43.694Z,38.63
2023-05-09T19:49:10.778Z,38.44
2023-05-09T19:51:37.320Z,38.48
2023-05-09T19:54:03.993Z,38.51
2023-05-09T19:56:30.971Z,37.92
2023-05-09T19:58:57.542Z,38.60
2023-05-09T20:01:24.072Z,38.67
2023-05-09T20:03:50.932Z,38.27
2023-05-09T20:06:18.263Z,38.56
2023-05-09T20:08:44.839Z,38.37
2023-05-09T20:11:11.400Z,38.54
2023-05-09T20:13:38.772Z,38.65
2023-05-09T20:16:05.507Z,38.43
2023-05-09T20:18:32.173Z,38.39
2023-05-09T20:21:01.811Z,38.43
2023-05-09T20:23:28.386Z,38.42
2023-05-09T20:25:55.455Z,38.52
2023-05-09T20:28:22.005Z,38.74
2023-05-09T20:30:49.744Z,39.04
2023-05-09T20:33:16.264Z,38.88
2023-05-09T20:35:43.793Z,38.84
2023-05-09T20:38:11.049Z,38.92
2023-05-09T20:40:37.605Z,39.09
2023-05-09T20:43:04.192Z,39.31
2023-05-09T20:45:30.775Z,38.97
2023-05-09T20:47:57.414Z,39.10
2023-05-09T20:50:23.971Z,39.23
2023-05-09T20:52:50.492Z,39.46
2023-05-09T20:55:17.096Z,39.27
2023-05-09T20:57:43.665Z,39.00
2023-05-09T21:00:10.601Z,38.82
2023-05-09T21:02:37.336Z,39.25
2023-05-09T21:05:04.102Z,39.54
2023-05-09T21:07:30.632Z,39.94
2023-05-09T21:09:57.696Z,39.82
2023-05-09T21:12:24.254Z,39.83
2023-05-09T21:14:50.826Z,39.95
2023-05-09T21:17:17.609Z,40.11
2023-05-09T21:19:44.274Z,39.86
2023-05-09T21:22:10.806Z,40.03
2023-05-09T21:24:37.356Z,40.06
2023-05-09T21:27:03.982Z,40.08
2023-05-09T21:29:30.521Z,40.47
2023-05-09T21:31:57.042Z,40.17
2023-05-09T21:34:23.603Z,40.61
2023-05-09T21:36:50.330Z,40.45
2023-05-09T21:39:16.924Z,40.48
2023-05-09T21:41:43.527Z,40.78
2023-05-09T21:44:10.047Z,41.41
2023-05-09T21:46:36.729Z,41.13
2023-05-09T21:49:03.319Z,41.24
2023-05-09T21:51:29.865Z,41.04
2023-05-09T21:53:56.398Z,40.90
2023-05-09T21:56:23.064Z,41.51
2023-05-09T21:58:49.582Z,41.04
2023-05-09T22:01:16.302Z,41.50
2023-05-09T22:03:43.121Z,41.07
2023-05-09T22:06:09.688Z,41.54
2023-05-09T22:08:36.226Z,41.35
2023-05-09T22:11:02.730Z,41.34
2023-05-09T22:13:29.311Z,41.29
2023-05-09T22:15:55.976Z,42.03
2023-05-09T22:18:22.543Z,41.60
2023-05-09T22:20:49.088Z,42.07
2023-05-09T22:23:15.621Z,41.78
2023-05-09T22:25:42.240Z,41.34
2023-05-09T22:28:08.771Z,41.47
2023-05-09T22:30:35.314Z,41.86
2023-05-09T22:33:01.879Z,41.58
2023-05-09T22:35:28.456Z,42.05
2023-05-09T22:37:55.014Z,42.10
2023-05-09T22:40:21.588Z,42.19
2023-05-09T22:42:48.090Z,42.53
2023-05-09T22:45:14.634Z,42.96
2023-05-09T22:47:41.202Z,42.47
2023-05-09T22:50:08.364Z,43.23
2023-05-09T22:52:34.907Z,42.96
2023-05-09T22:55:01.422Z,43.02
2023-05-09T22:57:27.959Z,43.36
2023-05-09T22:59:54.558Z,43.72
2023-05-09T23:02:21.210Z,43.53
2023-05-09T23:04:47.819Z,44.50
2023-05-09T23:07:14.347Z,44.27
2023-05-09T23:09:40.933Z,44.52
2023-05-09T23:12:07.776Z,44.83
2023-05-09T23:14:34.327Z,45.55
2023-05-09T23:17:00.836Z,45.64
2023-05-09T23:19:27.421Z,45.75
2023-05-09T23:21:54.149Z,45.98
2023-05-09T23:24:20.684Z,46.40
2023-05-09T23:26:47.210Z,46.03
2023-05-09T23:29:13.763Z,46.90
2023-05-09T23:31:40.284Z,47.24
2023-05-09T23:34:06.836Z,47.52
2023-05-09T23:36:33.364Z,48.03
2023-05-09T23:38:59.901Z,48.10
2023-05-09T23:41:26.440Z,48.26
2023-05-09T23:43:52.967Z,48.03
2023-05-09T23:46:19.535Z,48.31
2023-05-09T23:48:46.089Z,48.50
2023-05-09T23:51:12.616Z,49.31
2023-05-09T23:53:39.145Z,49.39
2023-05-09T23:56:06.104Z,49.00
2023-05-09T23:58:32.639Z,49.75
